Time;durP1;ratioP1;P1;durP2;ratioP2;P2;SDS_P1;SDS_P2;PMS_P1;PMS_P2;Temp;Humidity;BMP_temperature;BMP_pressure;BME280_temperature;BME280_humidity;BME280_pressure;Samples;Min_cycle;Max_cycle;Signal;HPM_P1;HPM_P2
2021/11/17 02:30:26;;;;;;;0.28;0.28;;;6.60;93.40;5.50;101894.00;;;;31318224;28;20611;-73
2021/11/17 02:45:49;;;;;;;0.38;0.38;;;6.70;93.30;5.50;101878.00;;;;31324368;28;20049;-73
2021/11/17 03:01:36;;;;;;;0.20;0.20;;;6.70;93.40;5.50;101889.00;;;;31327449;28;20053;-73
2021/11/17 03:17:19;;;;;;;11.07;2.42;;;6.60;93.30;5.50;101876.00;;;;31385232;28;20043;-74
2021/11/17 03:33:27;;;;;;;0.20;0.20;;;6.70;93.30;5.50;101875.00;;;;31370123;28;20082;-74
2021/11/17 03:48:47;;;;;;;;;;;6.70;93.80;5.50;101882.00;;;;31389370;28;20044;-74
2021/11/17 04:13:34;;;;;;;0.20;0.20;;;6.80;93.50;5.60;101878.00;;;;31161887;28;20436;-73
2021/11/17 04:29:21;;;;;;;1.25;1.25;;;6.90;93.50;5.70;101899.00;;;;30942215;28;20620;-74
2021/11/17 04:44:35;;;;;;;0.30;0.30;;;6.80;93.90;5.70;101875.00;;;;30856324;28;20046;-74
2021/11/17 04:59:46;;;;;;;0.20;0.20;;;6.90;93.40;5.70;101854.00;;;;30878363;28;20803;-74
2021/11/17 05:15:05;;;;;;;0.20;0.20;;;6.90;93.60;5.70;101843.00;;;;30841171;28;20076;-74
2021/11/17 05:30:47;;;;;;;0.20;0.20;;;6.90;93.60;5.60;101828.00;;;;30774387;28;20106;-74
2021/11/17 05:45:57;;;;;;;1.05;1.00;;;6.80;94.10;5.50;101822.00;;;;30777530;28;20051;-74
2021/11/17 06:01:35;;;;;;;0.77;0.77;;;6.70;93.80;5.50;101812.00;;;;30785905;28;20054;-73
2021/11/17 06:16:48;;;;;;;0.20;0.20;;;6.70;93.80;5.50;101829.00;;;;30776550;28;20109;-73
2021/11/17 06:31:54;;;;;;;0.20;0.20;;;6.80;93.90;5.60;101853.00;;;;30773415;28;20050;-73
2021/11/17 06:46:56;;;;;;;0.33;0.33;;;6.80;93.90;5.70;101870.00;;;;30798047;28;20533;-74
2021/11/17 07:02:04;;;;;;;0.38;0.38;;;6.80;93.90;5.70;101870.00;;;;30768600;28;20803;-73
2021/11/17 07:17:10;;;;;;;0.30;0.30;;;7.00;93.80;5.80;101875.00;;;;30768668;28;20097;-73
2021/11/17 07:32:11;;;;;;;0.30;0.30;;;7.00;94.20;5.90;101886.00;;;;30750434;28;20516;-73
2021/11/17 07:47:19;;;;;;;0.20;0.20;;;7.10;93.90;6.00;101903.00;;;;30783593;28;20166;-73
2021/11/17 08:02:21;;;;;;;2.90;0.68;;;7.10;94.30;6.10;101887.00;;;;30763322;28;20891;-74
2021/11/17 08:17:23;;;;;;;0.75;0.75;;;7.30;94.00;6.20;101908.00;;;;30764479;28;20109;-72
2021/11/17 08:32:30;;;;;;;0.35;0.35;;;7.60;94.20;6.40;101919.00;;;;30791555;28;20050;-73
2021/11/17 08:47:31;;;;;;;1.85;1.85;;;7.60;94.20;6.60;101929.00;;;;30800738;28;20082;-73
2021/11/17 09:02:33;;;;;;;0.30;0.30;;;7.80;94.30;6.80;101929.00;;;;30808151;28;20069;-73
2021/11/17 09:17:37;;;;;;;0.70;0.70;;;7.90;94.30;6.90;101932.00;;;;30785328;28;20584;-74
2021/11/17 09:32:39;;;;;;;0.28;0.28;;;8.10;94.80;7.10;101944.00;;;;30816130;28;20055;-74
2021/11/17 09:47:42;;;;;;;0.20;0.20;;;8.10;94.90;7.30;101959.00;;;;30798245;28;21447;-73
2021/11/17 10:03:04;;;;;;;0.20;0.20;;;8.30;94.90;7.40;101978.00;;;;30777768;28;20074;-75
2021/11/17 10:18:19;;;;;;;0.52;0.52;;;8.60;95.10;7.60;101977.00;;;;30784405;28;20074;-73
2021/11/17 10:34:09;;;;;;;0.87;0.87;;;9.10;95.10;7.70;101977.00;;;;30776035;28;20047;-74
2021/11/17 10:49:26;;;;;;;0.20;0.20;;;8.90;95.10;8.00;101980.00;;;;30770314;28;20521;-74
2021/11/17 11:05:17;;;;;;;0.38;0.38;;;9.00;95.20;8.00;101994.00;;;;30806634;28;20138;-74
2021/11/17 11:20:20;;;;;;;0.13;0.13;;;9.20;95.40;8.30;102001.00;;;;30778455;28;20618;-74
2021/11/17 11:35:30;;;;;;;0.40;0.40;;;9.30;95.40;8.40;101999.00;;;;30774204;28;20050;-74
2021/11/17 11:50:32;;;;;;;0.20;0.20;;;9.60;95.60;8.60;101996.00;;;;30771445;28;20051;-74
2021/11/17 12:05:39;;;;;;;0.17;0.17;;;9.80;95.40;9.10;102007.00;;;;30771526;28;20093;-75
2021/11/17 12:21:16;;;;;;;0.17;0.17;;;10.20;95.30;9.70;102005.00;;;;30784815;28;20050;-75
2021/11/17 12:36:48;;;;;;;0.20;0.20;;;10.80;94.70;10.10;102012.00;;;;30788457;28;20453;-75
2021/11/17 12:52:33;;;;;;;0.20;0.20;;;11.10;94.50;10.20;102012.00;;;;30788659;28;20113;-75
2021/11/17 13:07:47;;;;;;;0.30;0.30;;;11.30;94.40;10.40;102015.00;;;;30777845;28;20069;-75
2021/11/17 13:23:18;;;;;;;0.10;0.10;;;11.70;94.00;10.90;102017.00;;;;30792470;28;20135;-75
2021/11/17 13:38:26;;;;;;;0.17;0.17;;;12.00;93.40;11.00;102023.00;;;;30780141;28;20125;-75
2021/11/17 13:53:35;;;;;;;0.40;0.40;;;11.80;93.40;10.80;102043.00;;;;30806851;28;20514;-76
2021/11/17 14:08:38;;;;;;;0.10;0.10;;;11.70;93.80;10.60;102041.00;;;;30809532;28;20046;-76
2021/11/17 14:23:40;;;;;;;0.10;0.10;;;11.50;90.60;10.50;102051.00;;;;30771869;28;21161;-76
2021/11/17 14:38:44;;;;;;;1.17;1.17;;;11.40;90.10;10.40;102073.00;;;;30803019;28;20074;-75
2021/11/17 14:53:49;;;;;;;0.10;0.10;;;10.90;90.60;10.30;102095.00;;;;30809482;28;20519;-75
2021/11/17 15:08:57;;;;;;;0.57;0.55;;;11.20;90.20;10.20;102097.00;;;;30803542;28;20130;-75
2021/11/17 15:23:59;;;;;;;0.10;0.10;;;11.00;89.30;9.90;102093.00;;;;30826966;28;20053;-75
2021/11/17 15:39:02;;;;;;;0.20;0.20;;;10.70;90.60;9.60;102107.00;;;;30893360;28;20039;-75
2021/11/17 15:54:04;;;;;;;0.15;0.15;;;10.50;90.20;9.30;102130.00;;;;30875517;28;20149;-75
2021/11/17 16:09:06;;;;;;;0.20;0.20;;;10.20;90.60;8.80;102152.00;;;;30884985;28;20070;-75
2021/11/17 16:39:31;;;;;;;0.10;0.10;;;9.10;90.90;7.80;102210.00;;;;30873193;28;20676;-75
2021/11/17 16:54:35;;;;;;;0.20;0.20;;;8.80;91.40;7.50;102218.00;;;;30884085;28;20404;-76
2021/11/17 17:09:43;;;;;;;0.13;0.13;;;8.60;91.70;7.20;102235.00;;;;30875209;28;20554;-75
2021/11/17 17:24:44;;;;;;;0.20;0.20;;;8.20;92.20;6.90;102273.00;;;;30901303;28;20121;-75
2021/11/17 17:39:47;;;;;;;0.20;0.20;;;8.20;92.80;6.70;102299.00;;;;30901417;28;20664;-75
2021/11/17 17:54:53;;;;;;;0.22;0.22;;;7.60;92.80;6.60;102313.00;;;;30896581;28;20043;-75
2021/11/17 18:09:54;;;;;;;0.20;0.20;;;7.80;92.60;6.40;102341.00;;;;30867257;28;20054;-74
2021/11/17 18:24:58;;;;;;;0.20;0.20;;;7.50;92.70;6.10;102354.00;;;;30887777;28;20972;-76
2021/11/17 18:40:00;;;;;;;0.20;0.20;;;7.30;93.40;6.00;102360.00;;;;30873978;28;20081;-75
2021/11/17 18:55:04;;;;;;;0.50;0.50;;;7.10;93.30;5.80;102378.00;;;;30868833;28;20046;-75
2021/11/17 19:10:14;;;;;;;0.20;0.20;;;7.00;93.30;5.70;102389.00;;;;30798283;28;20064;-75
2021/11/17 19:25:20;;;;;;;0.20;0.20;;;7.00;93.20;5.60;102417.00;;;;30765262;28;20879;-74
2021/11/17 19:40:21;;;;;;;0.40;0.40;;;6.90;93.70;5.50;102438.00;;;;30756716;28;20055;-74
2021/11/17 19:55:23;;;;;;;0.20;0.20;;;6.70;93.30;5.40;102449.00;;;;30775611;28;20490;-74
2021/11/17 20:10:26;;;;;;;0.15;0.15;;;6.60;93.30;5.30;102444.00;;;;30767702;28;20545;-74
2021/11/17 20:25:31;;;;;;;0.20;0.20;;;6.50;93.30;5.20;102442.00;;;;30767365;28;20054;-74
2021/11/17 20:40:36;;;;;;;0.20;0.20;;;6.40;93.60;5.10;102459.00;;;;30758141;28;20524;-74
2021/11/17 20:55:38;;;;;;;0.20;0.20;;;6.30;93.90;5.10;102469.00;;;;30808145;28;20607;-76
2021/11/17 21:10:42;;;;;;;0.28;0.28;;;6.30;94.00;5.00;102480.00;;;;30772947;28;20079;-74
2021/11/17 21:25:43;;;;;;;0.20;0.20;;;6.30;94.00;4.90;102483.00;;;;30767363;28;20082;-74
2021/11/17 21:40:46;;;;;;;0.20;0.20;;;6.20;94.10;4.90;102500.00;;;;30785723;28;20493;-73
2021/11/17 21:55:49;;;;;;;0.20;0.20;;;6.20;94.10;4.90;102511.00;;;;30753388;28;20043;-75
2021/11/17 22:10:57;;;;;;;0.20;0.20;;;6.20;95.10;4.90;102523.00;;;;30768562;28;20089;-74
2021/11/17 22:26:02;;;;;;;0.20;0.20;;;6.20;94.70;5.00;102521.00;;;;30747508;28;20050;-74
2021/11/17 22:41:08;;;;;;;0.30;0.30;;;6.20;95.00;4.90;102546.00;;;;30796167;28;20050;-73
2021/11/17 22:56:14;;;;;;;0.30;0.30;;;6.20;94.50;4.90;102523.00;;;;30890808;28;20046;-73
2021/11/17 23:11:21;;;;;;;0.20;0.20;;;6.20;94.70;4.90;102512.00;;;;30882995;28;20046;-74
2021/11/17 23:26:25;;;;;;;0.30;0.30;;;6.20;95.20;5.00;102528.00;;;;30889999;28;20096;-74
2021/11/17 23:41:33;;;;;;;0.20;0.20;;;6.20;95.10;4.80;102517.00;;;;30897023;28;20845;-74
2021/11/17 23:56:36;;;;;;;0.30;0.30;;;6.80;95.40;4.80;102538.00;;;;30900332;28;20046;-74
